Time;durP1;ratioP1;P1;durP2;ratioP2;P2;SDS_P1;SDS_P2;PMS_P1;PMS_P2;Temp;Humidity;BMP_temperature;BMP_pressure;BME280_temperature;BME280_humidity;BME280_pressure;Samples;Min_cycle;Max_cycle;Signal;HPM_P1;HPM_P2
2022/03/13 00:04:56;;;;;;;11.60;7.30;;;22.90;40.20;;;;;;219569;1273;22535;-56
2022/03/13 00:10:00;;;;;;;11.80;6.70;;;22.90;40.60;;;;;;219462;1273;22557;-55
2022/03/13 00:15:23;;;;;;;13.00;7.10;;;22.80;41.00;;;;;;219547;1275;22635;-55
2022/03/13 00:20:28;;;;;;;14.20;7.40;;;22.60;41.20;;;;;;219686;1273;22591;-57
2022/03/13 00:25:38;;;;;;;18.00;7.20;;;22.50;41.40;;;;;;219784;1273;23156;-55
2022/03/13 00:30:47;;;;;;;16.50;7.20;;;22.60;42.50;;;;;;219627;1273;22661;-60
2022/03/13 00:35:53;;;;;;;14.60;7.10;;;22.60;43.10;;;;;;219882;1273;22602;-56
2022/03/13 00:41:00;;;;;;;14.40;7.20;;;22.90;42.70;;;;;;219864;1273;24373;-56
2022/03/13 00:46:08;;;;;;;12.60;6.80;;;23.20;42.00;;;;;;219668;1273;22554;-58
2022/03/13 00:51:15;;;;;;;12.40;6.90;;;23.50;41.40;;;;;;219521;1273;24339;-59
2022/03/13 00:56:18;;;;;;;15.50;6.60;;;23.60;41.00;;;;;;219517;1275;25322;-57
2022/03/13 01:01:22;;;;;;;12.50;7.20;;;23.80;41.20;;;;;;219397;1276;22621;-56
2022/03/13 01:06:26;;;;;;;12.20;6.60;;;23.80;40.70;;;;;;219582;1273;24607;-56
2022/03/13 01:11:30;;;;;;;12.60;6.70;;;23.80;40.50;;;;;;219637;1273;22614;-57
2022/03/13 01:16:37;;;;;;;10.20;6.80;;;23.80;40.40;;;;;;219956;1273;25552;-56
2022/03/13 01:21:42;;;;;;;13.30;6.60;;;23.90;40.20;;;;;;219618;1273;24913;-57
2022/03/13 01:26:54;;;;;;;12.00;7.30;;;23.90;40.10;;;;;;219648;1273;22576;-58
2022/03/13 01:31:58;;;;;;;11.50;6.70;;;24.00;40.10;;;;;;219701;1273;23055;-57
2022/03/13 01:37:27;;;;;;;13.40;6.70;;;24.00;39.90;;;;;;219462;1274;25555;-57
2022/03/13 01:42:32;;;;;;;10.10;6.30;;;23.90;40.10;;;;;;219635;1273;23177;-58
2022/03/13 01:47:36;;;;;;;11.70;6.40;;;24.00;39.90;;;;;;219536;1273;24483;-60
2022/03/13 01:52:48;;;;;;;10.80;6.80;;;24.00;39.90;;;;;;219690;1273;22796;-58
2022/03/13 01:57:53;;;;;;;10.00;5.50;;;23.90;40.00;;;;;;219489;1274;22618;-58
2022/03/13 02:02:57;;;;;;;11.10;6.30;;;24.00;40.60;;;;;;219575;1273;24298;-57
2022/03/13 02:08:19;;;;;;;11.80;6.60;;;24.00;40.00;;;;;;219520;1273;24985;-58
2022/03/13 02:13:23;;;;;;;14.20;7.10;;;24.00;39.90;;;;;;219609;1273;24392;-57
2022/03/13 02:18:28;;;;;;;11.70;6.00;;;24.10;39.80;;;;;;219464;1273;22645;-57
2022/03/13 02:23:33;;;;;;;13.30;6.90;;;24.10;39.80;;;;;;219607;1274;22554;-57
2022/03/13 02:28:52;;;;;;;9.80;6.00;;;24.20;39.70;;;;;;219648;1273;22617;-57
2022/03/13 02:33:57;;;;;;;12.80;7.10;;;24.10;39.70;;;;;;219680;1273;24303;-57
2022/03/13 02:39:06;;;;;;;11.10;6.40;;;24.10;40.30;;;;;;219626;1273;23119;-54
2022/03/13 02:44:17;;;;;;;11.50;7.20;;;24.20;39.60;;;;;;219435;1274;24326;-58
2022/03/13 02:49:23;;;;;;;10.20;6.40;;;24.20;39.60;;;;;;219590;1273;24005;-56
2022/03/13 02:54:27;;;;;;;10.70;6.70;;;24.20;40.00;;;;;;219685;1274;22535;-57
2022/03/13 02:59:31;;;;;;;11.70;6.90;;;24.10;39.50;;;;;;219742;1273;25401;-57
2022/03/13 03:04:35;;;;;;;10.60;6.80;;;24.20;39.90;;;;;;219605;1273;22599;-56
2022/03/13 03:09:39;;;;;;;11.70;6.50;;;24.10;39.60;;;;;;219524;1273;23029;-60
2022/03/13 03:14:44;;;;;;;13.40;6.60;;;24.00;39.60;;;;;;219526;1274;22578;-57
2022/03/13 03:19:48;;;;;;;13.30;6.80;;;23.90;39.70;;;;;;219296;1275;23670;-58
2022/03/13 03:24:53;;;;;;;11.30;6.60;;;23.80;40.00;;;;;;219641;1273;22534;-56
2022/03/13 03:29:59;;;;;;;10.10;6.60;;;23.70;40.20;;;;;;219567;1273;22566;-55
2022/03/13 03:35:25;;;;;;;11.40;5.90;;;23.60;40.40;;;;;;219643;1273;23667;-53
2022/03/13 03:40:34;;;;;;;8.30;5.80;;;23.50;40.60;;;;;;219420;1275;22581;-56
2022/03/13 03:45:38;;;;;;;15.30;6.80;;;23.30;40.90;;;;;;219632;1275;24239;-57
2022/03/13 03:50:49;;;;;;;9.40;5.90;;;23.30;41.10;;;;;;219478;1273;24390;-56
2022/03/13 03:55:52;;;;;;;10.00;6.30;;;23.20;41.30;;;;;;219659;1273;22544;-55
2022/03/13 04:00:57;;;;;;;9.60;5.90;;;23.10;41.40;;;;;;219619;1273;22566;-59
2022/03/13 04:06:04;;;;;;;11.20;5.80;;;23.00;41.60;;;;;;219837;1273;22533;-57
2022/03/13 04:11:11;;;;;;;10.00;6.00;;;23.00;41.70;;;;;;219590;1275;22726;-56
2022/03/13 04:16:15;;;;;;;10.30;6.20;;;22.90;41.70;;;;;;219625;1273;24247;-55
2022/03/13 04:21:19;;;;;;;12.20;7.00;;;22.80;42.10;;;;;;219558;1273;22719;-56
2022/03/13 04:26:23;;;;;;;11.50;6.70;;;22.70;42.30;;;;;;219554;1274;23180;-55
2022/03/13 04:31:26;;;;;;;10.90;6.40;;;22.60;42.10;;;;;;219617;1274;24267;-57
2022/03/13 04:36:33;;;;;;;12.50;6.40;;;22.60;42.10;;;;;;219603;1273;25265;-53
2022/03/13 04:41:40;;;;;;;9.60;5.70;;;22.60;42.00;;;;;;219632;1277;23196;-56
2022/03/13 04:46:45;;;;;;;11.10;5.70;;;22.90;42.00;;;;;;219293;1275;458221;-56
2022/03/13 04:51:48;;;;;;;8.20;5.00;;;23.30;41.30;;;;;;219523;1274;23419;-55
2022/03/13 04:56:53;;;;;;;9.80;6.10;;;23.60;40.80;;;;;;219539;1274;22732;-57
2022/03/13 05:01:56;;;;;;;9.90;5.40;;;23.70;40.60;;;;;;219910;1275;25517;-57
2022/03/13 05:07:06;;;;;;;10.70;6.10;;;23.80;40.30;;;;;;219639;1275;22562;-57
2022/03/13 05:12:10;;;;;;;11.40;6.20;;;23.90;40.40;;;;;;219562;1274;24288;-57
2022/03/13 05:17:15;;;;;;;10.60;5.40;;;23.90;40.10;;;;;;219610;1274;22681;-58
2022/03/13 05:22:19;;;;;;;10.00;6.00;;;23.90;40.10;;;;;;219677;1274;22545;-57
2022/03/13 05:27:23;;;;;;;15.30;7.10;;;24.00;39.90;;;;;;219683;1274;22585;-58
2022/03/13 05:32:27;;;;;;;12.30;6.30;;;23.90;39.90;;;;;;219564;1275;22665;-59
2022/03/13 05:37:32;;;;;;;15.30;7.50;;;23.90;40.20;;;;;;219457;1275;22747;-59
2022/03/13 05:42:36;;;;;;;11.50;5.40;;;23.90;39.80;;;;;;219473;1275;22829;-57
2022/03/13 05:47:44;;;;;;;10.80;6.00;;;23.90;40.10;;;;;;219739;1274;26147;-57
2022/03/13 05:52:49;;;;;;;10.20;5.90;;;23.90;39.80;;;;;;220080;1274;25670;-58
2022/03/13 05:57:53;;;;;;;11.10;6.40;;;23.90;39.70;;;;;;219906;1275;22759;-56
2022/03/13 06:03:00;;;;;;;9.00;5.40;;;23.90;39.90;;;;;;219790;1274;25065;-58
2022/03/13 06:08:09;;;;;;;8.30;5.50;;;23.90;39.80;;;;;;219618;1277;22769;-57
2022/03/13 06:13:14;;;;;;;8.90;5.00;;;24.00;39.70;;;;;;219488;1275;22568;-57
2022/03/13 06:18:22;;;;;;;10.00;6.00;;;24.00;39.90;;;;;;219646;1275;24244;-57
2022/03/13 06:23:28;;;;;;;10.60;5.60;;;24.00;39.90;;;;;;219515;1275;22653;-55
2022/03/13 06:28:33;;;;;;;9.50;5.90;;;24.00;39.80;;;;;;219614;1274;25446;-55
2022/03/13 06:33:37;;;;;;;9.60;5.90;;;24.00;39.90;;;;;;219602;1274;24278;-55
2022/03/13 06:38:55;;;;;;;10.30;5.20;;;24.10;39.90;;;;;;219671;1274;24441;-57
2022/03/13 06:44:06;;;;;;;8.90;5.40;;;24.10;39.70;;;;;;219557;1274;22681;-57
2022/03/13 06:49:10;;;;;;;7.10;5.10;;;24.10;39.60;;;;;;219557;1274;24254;-56
2022/03/13 06:54:19;;;;;;;9.60;5.70;;;24.10;39.60;;;;;;219642;1274;22551;-57
2022/03/13 06:59:23;;;;;;;8.80;5.80;;;24.10;39.50;;;;;;219710;1274;24461;-59
2022/03/13 07:04:27;;;;;;;8.80;5.20;;;24.20;39.40;;;;;;219618;1274;22632;-55
2022/03/13 07:09:33;;;;;;;14.10;5.90;;;24.20;39.50;;;;;;219691;1274;22561;-52
2022/03/13 07:14:48;;;;;;;10.50;6.70;;;24.20;39.40;;;;;;219797;1275;22733;-59
2022/03/13 07:19:52;;;;;;;;;;;24.20;39.40;;;;;;219691;1273;22554;-55
2022/03/13 07:24:57;;;;;;;10.20;5.60;;;24.20;39.30;;;;;;219644;1274;22806;-55
2022/03/13 07:30:06;;;;;;;12.30;5.50;;;24.10;39.80;;;;;;219623;1274;25439;-58
2022/03/13 07:35:25;;;;;;;11.40;5.90;;;24.20;39.80;;;;;;219680;1274;22629;-57
2022/03/13 07:40:29;;;;;;;12.90;6.00;;;24.20;39.60;;;;;;219568;1274;22719;-57
2022/03/13 07:45:33;;;;;;;13.30;6.30;;;24.20;39.90;;;;;;219614;1274;22582;-61
2022/03/13 07:50:39;;;;;;;9.70;5.50;;;24.10;39.90;;;;;;219505;1274;22536;-57
2022/03/13 07:55:44;;;;;;;10.40;5.70;;;24.00;40.00;;;;;;219676;1275;25732;-55
2022/03/13 08:00:52;;;;;;;11.00;5.60;;;24.00;40.10;;;;;;219593;1273;22621;-58
2022/03/13 08:05:57;;;;;;;13.10;6.10;;;23.90;40.20;;;;;;219701;1273;24397;-54
2022/03/13 08:11:12;;;;;;;10.60;6.10;;;23.90;40.30;;;;;;219610;1273;24276;-58
2022/03/13 08:16:24;;;;;;;13.70;5.60;;;23.80;40.60;;;;;;219723;1273;25796;-58
2022/03/13 08:21:30;;;;;;;12.70;6.20;;;23.80;40.80;;;;;;219503;1273;22599;-58
2022/03/13 08:26:38;;;;;;;12.80;5.40;;;23.70;41.00;;;;;;219551;1273;22532;-55
2022/03/13 08:31:42;;;;;;;17.70;5.80;;;23.60;41.00;;;;;;219582;1274;25508;-55
2022/03/13 08:36:48;;;;;;;13.00;5.60;;;23.60;41.40;;;;;;219536;1273;24867;-58
2022/03/13 08:41:54;;;;;;;14.30;6.10;;;23.60;41.50;;;;;;219627;1273;22609;-54
2022/03/13 08:46:58;;;;;;;9.60;4.80;;;23.60;41.50;;;;;;219370;1274;24311;-57
2022/03/13 08:52:04;;;;;;;13.10;6.00;;;23.50;41.90;;;;;;219591;1273;24335;-56
2022/03/13 08:57:10;;;;;;;10.60;4.40;;;23.50;42.30;;;;;;219460;1273;25461;-57
2022/03/13 09:02:15;;;;;;;9.20;4.80;;;23.50;42.40;;;;;;219531;1273;25280;-58
2022/03/13 09:07:19;;;;;;;8.40;4.90;;;23.50;42.60;;;;;;219715;1273;22841;-56
2022/03/13 09:12:23;;;;;;;16.10;5.20;;;23.40;43.20;;;;;;219671;1273;23011;-58
2022/03/13 09:17:36;;;;;;;16.60;5.50;;;23.40;43.30;;;;;;219675;1272;24311;-57
2022/03/13 09:22:42;;;;;;;15.20;5.40;;;23.40;43.00;;;;;;219492;1273;24263;-57
2022/03/13 09:27:54;;;;;;;19.80;4.60;;;23.30;43.60;;;;;;219598;1273;22758;-57
2022/03/13 09:33:06;;;;;;;12.40;4.70;;;23.30;43.30;;;;;;219690;1273;22568;-54
2022/03/13 09:38:10;;;;;;;16.10;6.30;;;23.30;43.10;;;;;;219645;1273;22632;-55
2022/03/13 09:43:14;;;;;;;19.70;6.60;;;23.30;43.50;;;;;;219542;1274;24365;-57
2022/03/13 09:48:25;;;;;;;12.40;5.50;;;23.30;43.60;;;;;;219530;1273;22557;-56
2022/03/13 09:53:31;;;;;;;14.70;6.10;;;23.30;43.80;;;;;;219602;1274;22553;-54
2022/03/13 09:58:47;;;;;;;15.00;5.10;;;23.30;42.80;;;;;;219655;1273;22535;-55
2022/03/13 10:03:50;;;;;;;10.50;4.50;;;23.40;44.50;;;;;;219436;1274;22774;-58
2022/03/13 10:08:54;;;;;;;15.40;5.30;;;23.50;44.70;;;;;;219347;1273;22562;-56
2022/03/13 10:14:06;;;;;;;14.50;4.60;;;23.50;44.60;;;;;;219388;1274;25616;-57
2022/03/13 10:19:19;;;;;;;14.90;5.40;;;23.50;44.00;;;;;;219482;1273;22576;-58
2022/03/13 10:24:38;;;;;;;12.50;5.00;;;23.60;44.40;;;;;;219576;1273;22615;-59
2022/03/13 10:30:00;;;;;;;32.10;6.30;;;23.60;43.60;;;;;;219571;1273;22626;-52
2022/03/13 10:35:25;;;;;;;16.10;6.50;;;23.50;43.80;;;;;;219514;1273;22537;-56
2022/03/13 10:40:36;;;;;;;18.00;6.80;;;23.60;43.10;;;;;;219502;1273;22554;-55
2022/03/13 10:45:49;;;;;;;17.70;7.50;;;23.50;35.60;;;;;;219495;1273;25312;-55
2022/03/13 10:51:07;;;;;;;16.50;7.10;;;23.20;31.60;;;;;;219566;1273;22551;-55
2022/03/13 10:56:12;;;;;;;13.20;6.50;;;22.90;29.40;;;;;;219513;1273;24226;-55
2022/03/13 11:01:23;;;;;;;19.70;7.30;;;22.90;30.60;;;;;;219499;1274;22586;-56
2022/03/13 11:06:27;;;;;;;14.10;5.90;;;23.20;31.50;;;;;;219465;1273;25326;-56
2022/03/13 11:11:38;;;;;;;12.50;5.70;;;23.40;32.20;;;;;;219403;1274;22599;-56
2022/03/13 11:16:43;;;;;;;24.50;6.40;;;23.40;33.90;;;;;;219675;1273;22635;-54
2022/03/13 11:21:53;;;;;;;10.20;5.50;;;23.50;34.00;;;;;;219534;1273;22561;-57
2022/03/13 11:26:57;;;;;;;15.10;6.70;;;23.60;33.10;;;;;;219318;1272;22545;-57
2022/03/13 11:32:38;;;;;;;16.70;6.50;;;23.70;33.80;;;;;;227281;1272;22912;-55
2022/03/13 11:37:46;;;;;;;17.40;6.60;;;23.80;35.60;;;;;;227454;1272;22433;-56
2022/03/13 11:42:56;;;;;;;15.20;6.10;;;23.70;36.20;;;;;;219333;1273;22612;-59
2022/03/13 11:48:22;;;;;;;16.80;7.70;;;23.80;36.40;;;;;;227466;1272;22380;-56
2022/03/13 11:53:40;;;;;;;17.40;6.40;;;23.80;35.80;;;;;;224360;1272;23252;-56
2022/03/13 11:59:24;;;;;;;16.60;6.10;;;23.80;36.50;;;;;;219469;1272;22780;-55
2022/03/13 12:04:41;;;;;;;15.50;6.30;;;23.80;37.40;;;;;;219260;1273;24405;-58
2022/03/13 12:09:48;;;;;;;15.20;5.90;;;23.80;38.00;;;;;;219695;1273;22625;-56
2022/03/13 12:15:06;;;;;;;13.00;5.50;;;23.80;39.30;;;;;;219663;1273;22558;-52
2022/03/13 12:20:28;;;;;;;11.70;6.10;;;23.90;39.00;;;;;;219236;1273;25612;-55
2022/03/13 12:25:32;;;;;;;14.90;6.10;;;23.90;39.40;;;;;;219386;1273;22810;-54
2022/03/13 12:31:04;;;;;;;11.90;6.20;;;24.00;39.40;;;;;;219707;1273;22783;-55
2022/03/13 12:36:10;;;;;;;15.10;5.90;;;24.00;39.60;;;;;;219491;1274;23238;-54
2022/03/13 12:41:28;;;;;;;14.90;5.50;;;24.00;39.00;;;;;;219508;1273;24335;-52
2022/03/13 12:46:32;;;;;;;14.30;6.00;;;24.00;38.30;;;;;;219641;1273;25542;-51
2022/03/13 12:51:46;;;;;;;10.80;5.30;;;24.10;38.30;;;;;;219334;1273;22539;-50
2022/03/13 12:57:05;;;;;;;14.60;5.80;;;24.10;38.80;;;;;;219570;1273;22638;-51
2022/03/13 13:02:25;;;;;;;18.90;5.60;;;24.00;39.10;;;;;;219399;1275;22648;-51
2022/03/13 13:07:31;;;;;;;14.90;5.60;;;24.10;38.80;;;;;;219257;1273;22706;-52
2022/03/13 13:12:39;;;;;;;11.50;5.70;;;24.00;38.70;;;;;;222275;1272;22538;-53
2022/03/13 13:17:46;;;;;;;;;;;24.00;38.70;;;;;;219268;1273;23018;-52
2022/03/13 13:23:08;;;;;;;12.00;5.60;;;24.00;38.30;;;;;;219161;1273;22569;-53
2022/03/13 13:28:14;;;;;;;11.70;5.20;;;23.90;38.00;;;;;;223883;1275;22578;-51
2022/03/13 13:33:20;;;;;;;12.90;5.50;;;24.00;38.00;;;;;;219576;1273;22975;-51
2022/03/13 13:38:31;;;;;;;12.70;6.10;;;24.00;38.70;;;;;;219605;1273;22538;-51
2022/03/13 13:43:44;;;;;;;12.20;5.80;;;23.90;37.80;;;;;;219417;1273;25572;-52
2022/03/13 13:48:49;;;;;;;10.30;5.30;;;23.90;37.80;;;;;;219524;1273;25474;-54
2022/03/13 13:54:14;;;;;;;10.70;5.00;;;23.90;38.10;;;;;;219412;1275;22550;-54
2022/03/13 13:59:26;;;;;;;14.10;6.10;;;23.90;37.70;;;;;;219670;1273;25611;-52
2022/03/13 14:04:31;;;;;;;8.90;5.60;;;23.80;37.70;;;;;;219447;1273;22559;-52
2022/03/13 14:09:37;;;;;;;13.40;5.90;;;23.90;37.70;;;;;;219587;1274;22651;-52
2022/03/13 14:14:54;;;;;;;12.60;6.10;;;23.90;37.60;;;;;;219559;1273;25648;-54
2022/03/13 14:19:58;;;;;;;11.00;5.40;;;23.80;37.40;;;;;;219618;1273;22544;-51
2022/03/13 14:25:16;;;;;;;15.50;5.80;;;23.80;37.70;;;;;;219681;1273;25316;-51
2022/03/13 14:30:29;;;;;;;9.40;5.40;;;23.70;37.70;;;;;;219576;1273;24325;-51
2022/03/13 14:35:35;;;;;;;9.30;5.20;;;23.70;37.90;;;;;;219592;1273;25315;-52
2022/03/13 14:40:39;;;;;;;13.30;5.70;;;23.60;37.70;;;;;;219683;1273;24896;-53
2022/03/13 14:45:43;;;;;;;18.50;7.00;;;23.60;37.70;;;;;;219668;1273;24250;-51
2022/03/13 14:50:59;;;;;;;12.20;6.60;;;23.50;37.90;;;;;;219414;1273;25630;-50
2022/03/13 14:56:24;;;;;;;9.80;5.90;;;23.50;38.00;;;;;;219324;1274;25540;-50
2022/03/13 15:01:40;;;;;;;15.30;6.60;;;23.50;38.60;;;;;;219732;1273;25674;-52
2022/03/13 15:06:50;;;;;;;14.50;6.90;;;23.50;38.40;;;;;;219579;1273;24329;-53
2022/03/13 15:11:57;;;;;;;14.90;6.50;;;23.40;38.70;;;;;;219557;1273;25671;-52
2022/03/13 15:17:20;;;;;;;11.20;6.50;;;23.40;38.80;;;;;;219651;1273;24240;-50
2022/03/13 15:22:31;;;;;;;13.00;6.60;;;23.30;39.20;;;;;;219297;1274;22612;-52
2022/03/13 15:27:37;;;;;;;12.10;6.30;;;23.30;39.20;;;;;;219696;1273;25354;-53
2022/03/13 15:32:46;;;;;;;19.70;7.40;;;23.30;39.30;;;;;;219422;1273;24222;-51
2022/03/13 15:37:53;;;;;;;14.90;7.00;;;23.20;39.50;;;;;;219626;1273;25650;-51
2022/03/13 15:42:57;;;;;;;14.70;6.70;;;23.20;39.60;;;;;;219832;1273;22603;-52
2022/03/13 15:48:12;;;;;;;9.80;6.10;;;23.20;39.70;;;;;;219202;1274;22634;-55
2022/03/13 15:53:24;;;;;;;10.60;6.20;;;23.20;39.80;;;;;;219649;1273;26465;-53
2022/03/13 15:58:58;;;;;;;11.40;6.70;;;23.20;39.10;;;;;;219591;1273;24238;-52
2022/03/13 16:04:12;;;;;;;12.90;6.60;;;23.30;38.70;;;;;;219520;1273;25326;-53
2022/03/13 16:09:15;;;;;;;25.70;8.20;;;23.20;38.80;;;;;;219232;1274;22540;-55
2022/03/13 16:14:25;;;;;;;12.90;6.50;;;23.10;38.90;;;;;;227141;1273;22539;-54
2022/03/13 16:19:32;;;;;;;15.00;6.80;;;23.00;39.00;;;;;;227357;1272;22424;-57
2022/03/13 16:24:41;;;;;;;18.20;7.30;;;23.10;39.60;;;;;;227375;1272;22381;-58
2022/03/13 16:29:56;;;;;;;13.30;7.00;;;23.10;39.10;;;;;;227205;1272;22405;-53
2022/03/13 16:35:35;;;;;;;13.40;7.00;;;23.00;38.80;;;;;;227226;1273;22414;-54
2022/03/13 16:40:45;;;;;;;13.80;6.70;;;23.00;38.80;;;;;;227306;1273;22725;-55
2022/03/13 16:45:49;;;;;;;13.30;6.90;;;23.00;39.00;;;;;;227246;1273;218462;-56
2022/03/13 16:50:56;;;;;;;12.70;6.40;;;23.00;39.10;;;;;;222526;1273;24238;-52
2022/03/13 16:56:05;;;;;;;10.70;6.10;;;23.00;38.90;;;;;;219510;1273;24271;-51
2022/03/13 17:01:09;;;;;;;13.70;6.50;;;22.90;39.00;;;;;;219436;1273;22659;-53
2022/03/13 17:06:14;;;;;;;12.70;6.50;;;22.80;39.10;;;;;;219315;1273;22554;-53
2022/03/13 17:11:21;;;;;;;15.90;6.90;;;22.80;39.20;;;;;;219364;1273;25532;-53
2022/03/13 17:16:27;;;;;;;15.30;7.30;;;22.70;38.90;;;;;;219267;1273;22559;-54
2022/03/13 17:21:38;;;;;;;15.50;7.10;;;22.70;38.50;;;;;;219196;1273;22591;-50
2022/03/13 17:26:44;;;;;;;14.70;7.10;;;22.60;38.50;;;;;;219287;1273;23795;-51
2022/03/13 17:31:51;;;;;;;11.00;5.90;;;22.60;38.50;;;;;;219482;1273;22558;-51
2022/03/13 17:36:56;;;;;;;26.70;6.80;;;22.60;38.50;;;;;;219839;1273;25636;-49
2022/03/13 17:42:20;;;;;;;18.70;7.00;;;22.60;38.60;;;;;;219760;1273;22658;-50
2022/03/13 17:47:50;;;;;;;16.70;6.90;;;22.50;38.80;;;;;;219698;1273;22729;-53
2022/03/13 17:53:00;;;;;;;13.10;6.40;;;22.50;38.80;;;;;;219557;1273;22574;-50
2022/03/13 17:58:53;;;;;;;13.50;7.50;;;22.50;39.20;;;;;;219209;1274;25625;-52
2022/03/13 18:04:51;;;;;;;14.50;6.70;;;22.50;39.30;;;;;;219314;1273;24211;-51
2022/03/13 18:10:47;;;;;;;20.20;8.00;;;22.40;39.00;;;;;;219327;1273;22790;-51
2022/03/13 18:16:18;;;;;;;11.80;6.40;;;22.40;39.40;;;;;;219382;1273;24461;-48
2022/03/13 18:21:45;;;;;;;18.90;7.50;;;22.30;38.80;;;;;;219233;1273;25411;-51
2022/03/13 18:27:01;;;;;;;14.80;7.70;;;22.30;38.30;;;;;;219419;1272;24306;-53
2022/03/13 18:32:13;;;;;;;13.90;6.70;;;22.30;38.50;;;;;;219292;1273;25383;-50
2022/03/13 18:37:20;;;;;;;14.40;7.10;;;22.30;38.50;;;;;;219233;1273;25407;-53
2022/03/13 18:42:29;;;;;;;12.30;6.60;;;22.20;38.40;;;;;;218874;1273;24444;-51
2022/03/13 18:47:44;;;;;;;12.70;7.20;;;22.30;38.60;;;;;;218971;1273;22604;-49
2022/03/13 18:52:51;;;;;;;15.20;7.20;;;22.20;38.80;;;;;;219292;1273;25321;-52
2022/03/13 18:57:59;;;;;;;11.50;6.90;;;22.30;38.30;;;;;;219245;1273;24267;-48
2022/03/13 19:03:20;;;;;;;11.70;6.90;;;22.30;38.60;;;;;;219238;1273;22641;-49
2022/03/13 19:08:30;;;;;;;10.20;6.30;;;22.40;38.80;;;;;;219287;1273;22573;-48
2022/03/13 19:13:43;;;;;;;10.70;7.50;;;22.30;39.10;;;;;;219263;1273;24666;-50
2022/03/13 19:19:07;;;;;;;15.70;7.60;;;22.30;39.10;;;;;;219340;1273;22748;-50
2022/03/13 19:24:12;;;;;;;13.10;7.60;;;22.20;39.20;;;;;;219338;1273;25426;-49
2022/03/13 19:29:15;;;;;;;15.60;8.20;;;22.20;39.40;;;;;;219125;1273;22631;-51
2022/03/13 19:34:45;;;;;;;17.60;7.40;;;22.10;40.30;;;;;;219031;1273;22734;-48
2022/03/13 19:40:06;;;;;;;19.50;8.10;;;22.20;39.80;;;;;;219353;1273;25581;-48
2022/03/13 19:45:17;;;;;;;17.80;8.50;;;22.50;40.10;;;;;;219514;1273;22561;-49
2022/03/13 19:50:44;;;;;;;20.00;7.20;;;22.90;39.70;;;;;;219359;1273;25433;-50
2022/03/13 19:55:58;;;;;;;14.90;7.80;;;23.10;39.40;;;;;;219182;1273;22577;-51
2022/03/13 20:01:09;;;;;;;15.40;8.20;;;23.30;39.10;;;;;;219252;1273;25242;-51
2022/03/13 20:06:18;;;;;;;14.90;7.50;;;23.40;38.90;;;;;;219329;1273;22611;-53
2022/03/13 20:11:28;;;;;;;18.00;7.80;;;23.50;39.40;;;;;;219239;1272;24271;-50
2022/03/13 20:16:42;;;;;;;12.30;7.10;;;23.60;40.00;;;;;;219290;1273;25537;-51
2022/03/13 20:21:48;;;;;;;19.40;7.60;;;23.60;39.20;;;;;;219502;1273;24235;-54
2022/03/13 20:26:59;;;;;;;24.90;8.20;;;23.50;39.50;;;;;;219227;1276;24475;-51
2022/03/13 20:32:10;;;;;;;20.70;7.70;;;23.60;43.30;;;;;;219272;1273;24245;-53
2022/03/13 20:37:15;;;;;;;19.40;7.40;;;23.80;43.10;;;;;;219219;1273;22617;-51
2022/03/13 20:42:19;;;;;;;14.80;7.80;;;23.80;43.70;;;;;;219423;1273;25306;-54
2022/03/13 20:47:24;;;;;;;19.60;7.40;;;23.80;43.20;;;;;;219353;1273;24579;-48
2022/03/13 20:52:31;;;;;;;15.10;7.60;;;23.80;42.10;;;;;;219166;1276;24271;-50
2022/03/13 20:57:36;;;;;;;15.60;7.90;;;23.80;41.70;;;;;;219234;1273;22710;-50
2022/03/13 21:02:40;;;;;;;16.50;7.30;;;23.80;41.60;;;;;;219147;1273;22678;-50
2022/03/13 21:07:52;;;;;;;12.70;7.20;;;23.70;41.10;;;;;;219197;1273;22594;-51
2022/03/13 21:13:07;;;;;;;12.90;7.20;;;23.80;41.00;;;;;;219057;1273;24279;-51
2022/03/13 21:18:34;;;;;;;15.00;7.80;;;23.80;40.90;;;;;;219147;1273;25346;-54
2022/03/13 21:23:41;;;;;;;13.00;7.00;;;23.80;40.60;;;;;;218701;1273;25374;-51
2022/03/13 21:28:47;;;;;;;12.90;6.90;;;23.90;40.70;;;;;;218950;1273;25462;-49
2022/03/13 21:33:54;;;;;;;12.10;7.50;;;23.80;40.60;;;;;;219314;1273;25657;-50
2022/03/13 21:38:58;;;;;;;17.40;6.90;;;23.90;40.20;;;;;;219391;1273;25358;-53
2022/03/13 21:44:15;;;;;;;13.70;7.40;;;23.90;41.00;;;;;;219273;1273;25527;-50
2022/03/13 21:49:18;;;;;;;12.20;7.20;;;23.90;41.40;;;;;;219439;1273;22826;-52
2022/03/13 21:54:22;;;;;;;11.90;6.90;;;24.00;41.50;;;;;;219399;1273;24690;-54
2022/03/13 21:59:41;;;;;;;14.70;7.60;;;24.00;41.40;;;;;;219247;1273;25371;-52
2022/03/13 22:04:47;;;;;;;12.80;6.50;;;24.10;41.50;;;;;;219530;1273;22831;-50
2022/03/13 22:09:52;;;;;;;13.50;7.10;;;24.10;41.60;;;;;;219323;1276;22574;-52
2022/03/13 22:15:14;;;;;;;15.90;7.80;;;24.00;41.30;;;;;;219124;1273;26615;-50
2022/03/13 22:20:18;;;;;;;13.70;8.10;;;23.90;42.20;;;;;;219395;1273;24608;-52
2022/03/13 22:25:24;;;;;;;14.30;8.10;;;23.80;41.80;;;;;;219330;1273;22758;-52
2022/03/13 22:30:33;;;;;;;10.20;6.50;;;23.70;41.90;;;;;;219448;1273;25335;-50
2022/03/13 22:35:37;;;;;;;13.60;6.40;;;23.60;42.40;;;;;;219453;1273;22627;-49
2022/03/13 22:40:48;;;;;;;15.40;7.10;;;23.50;42.40;;;;;;219296;1273;24637;-53
2022/03/13 22:45:56;;;;;;;15.00;7.40;;;23.40;43.00;;;;;;219224;1273;23237;-50
2022/03/13 22:51:08;;;;;;;9.70;5.90;;;23.30;42.50;;;;;;219227;1273;25542;-51
2022/03/13 22:56:13;;;;;;;;;;;23.20;43.00;;;;;;219448;1273;24272;-51
2022/03/13 23:01:22;;;;;;;13.90;6.20;;;23.10;42.70;;;;;;219289;1273;22616;-52
2022/03/13 23:06:29;;;;;;;10.30;6.00;;;23.10;43.00;;;;;;219249;1273;23098;-50
2022/03/13 23:11:36;;;;;;;10.30;6.00;;;23.00;43.20;;;;;;219381;1274;25312;-50
2022/03/13 23:16:46;;;;;;;9.40;5.70;;;22.90;43.20;;;;;;219376;1273;22838;-49
2022/03/13 23:21:51;;;;;;;11.20;6.20;;;22.90;43.00;;;;;;219444;1274;24207;-51
2022/03/13 23:26:55;;;;;;;12.30;5.90;;;22.80;43.80;;;;;;219298;1273;24261;-51
2022/03/13 23:31:59;;;;;;;9.90;5.80;;;22.80;43.60;;;;;;219119;1273;22561;-52
2022/03/13 23:37:09;;;;;;;10.70;5.80;;;22.80;43.70;;;;;;219144;1272;22542;-51
2022/03/13 23:42:16;;;;;;;13.00;7.00;;;22.70;43.70;;;;;;219198;1273;25316;-51
2022/03/13 23:47:19;;;;;;;13.10;6.40;;;22.70;43.70;;;;;;219180;1273;22549;-51
2022/03/13 23:52:23;;;;;;;8.90;4.90;;;22.60;43.60;;;;;;219241;1273;22557;-51
2022/03/13 23:57:26;;;;;;;12.60;6.50;;;22.50;43.80;;;;;;219181;1275;23162;-53
